createdAt,value
2023-04-24T00:00:42.611Z,10.20
2023-04-24T00:03:11.016Z,10.20
2023-04-24T00:05:41.283Z,10.20
2023-04-24T00:08:09.561Z,10.10
2023-04-24T00:10:37.745Z,10.10
2023-04-24T00:13:07.340Z,10.20
2023-04-24T00:15:35.603Z,10.20
2023-04-24T00:18:03.996Z,10.20
2023-04-24T00:20:33.493Z,10.20
2023-04-24T00:23:01.775Z,10.20
2023-04-24T00:25:30.050Z,10.30
2023-04-24T00:27:58.299Z,10.30
2023-04-24T00:30:27.992Z,10.30
2023-04-24T00:32:56.310Z,10.40
2023-04-24T00:35:24.586Z,10.40
2023-04-24T00:37:52.918Z,10.40
2023-04-24T00:40:21.327Z,10.40
2023-04-24T00:42:49.942Z,10.30
2023-04-24T00:45:18.210Z,10.30
2023-04-24T00:47:48.847Z,10.40
2023-04-24T00:50:18.279Z,10.50
2023-04-24T00:52:46.734Z,10.50
2023-04-24T00:55:15.034Z,10.50
2023-04-24T00:57:43.607Z,10.50
2023-04-24T01:00:13.123Z,10.40
2023-04-24T01:02:45.156Z,10.30
2023-04-24T01:05:16.100Z,10.30
2023-04-24T01:07:48.196Z,10.20
2023-04-24T01:10:18.072Z,10.20
2023-04-24T01:12:46.427Z,10.10
2023-04-24T01:15:14.627Z,10.10
2023-04-24T01:17:42.903Z,10.00
2023-04-24T01:20:12.879Z,10.00
2023-04-24T01:22:42.491Z,10.00
2023-04-24T01:25:11.140Z,9.90
2023-04-24T01:27:39.336Z,9.90
2023-04-24T01:30:09.059Z,9.80
2023-04-24T01:32:38.475Z,9.90
2023-04-24T01:35:08.258Z,9.80
2023-04-24T01:37:38.306Z,9.80
2023-04-24T01:40:09.930Z,9.80
2023-04-24T01:42:38.288Z,9.80
2023-04-24T01:45:07.932Z,9.70
2023-04-24T01:47:36.266Z,9.70
2023-04-24T01:50:05.073Z,9.70
2023-04-24T01:52:34.406Z,9.70
2023-04-24T01:55:05.020Z,9.70
2023-04-24T01:57:35.463Z,9.70
2023-04-24T02:00:05.174Z,9.70
2023-04-24T02:02:34.150Z,9.60
2023-04-24T02:05:02.383Z,9.60
2023-04-24T02:07:30.527Z,9.60
2023-04-24T02:09:58.692Z,9.60
2023-04-24T02:12:26.959Z,9.50
2023-04-24T02:14:56.550Z,9.60
2023-04-24T02:17:24.727Z,9.50
2023-04-24T02:19:52.886Z,9.50
2023-04-24T02:22:21.091Z,9.50
2023-04-24T02:24:49.355Z,9.50
2023-04-24T02:27:17.576Z,9.50
2023-04-24T02:29:46.059Z,9.50
2023-04-24T02:32:16.741Z,9.50
2023-04-24T02:34:45.249Z,9.50
2023-04-24T02:37:13.404Z,9.40
2023-04-24T02:39:41.804Z,9.40
2023-04-24T02:42:10.219Z,9.40
2023-04-24T02:44:38.375Z,9.40
2023-04-24T02:47:06.647Z,9.40
2023-04-24T02:49:36.254Z,9.40
2023-04-24T02:52:04.440Z,9.40
2023-04-24T02:54:32.670Z,9.40
2023-04-24T02:57:02.223Z,9.40
2023-04-24T02:59:30.444Z,9.40
2023-04-24T03:01:58.640Z,9.30
2023-04-24T03:04:27.302Z,9.30
2023-04-24T03:06:57.424Z,9.20
2023-04-24T03:09:25.711Z,9.10
2023-04-24T03:11:53.916Z,9.10
2023-04-24T03:14:22.074Z,9.10
2023-04-24T03:16:51.190Z,9.00
2023-04-24T03:19:19.364Z,9.00
2023-04-24T03:21:47.592Z,9.00
2023-04-24T03:24:17.163Z,9.00
2023-04-24T03:26:45.357Z,8.90
2023-04-24T03:29:13.645Z,8.90
2023-04-24T03:31:41.894Z,9.00
2023-04-24T03:34:10.528Z,9.00
2023-04-24T03:36:38.730Z,9.00
2023-04-24T03:39:06.868Z,9.00
2023-04-24T03:41:36.429Z,9.00
2023-04-24T03:44:04.682Z,9.10
2023-04-24T03:46:32.907Z,9.10
2023-04-24T03:49:01.088Z,9.10
2023-04-24T03:51:31.332Z,9.20
2023-04-24T03:53:59.652Z,9.20
2023-04-24T03:56:27.879Z,9.20
2023-04-24T03:58:57.497Z,9.20
2023-04-24T04:01:25.756Z,9.20
2023-04-24T04:03:54.119Z,9.20
2023-04-24T04:06:22.592Z,9.20
2023-04-24T04:08:50.815Z,9.20
2023-04-24T04:11:19.085Z,9.20
2023-04-24T04:13:48.991Z,9.20
2023-04-24T04:16:18.894Z,9.30
2023-04-24T04:18:47.324Z,9.30
2023-04-24T04:21:15.632Z,9.30
2023-04-24T04:23:43.856Z,9.40
2023-04-24T04:26:13.496Z,9.40
2023-04-24T04:28:41.871Z,9.40
2023-04-24T04:31:10.553Z,9.40
2023-04-24T04:33:40.552Z,9.40
2023-04-24T04:36:09.752Z,9.40
2023-04-24T04:38:38.251Z,9.40
2023-04-24T04:41:06.566Z,9.40
2023-04-24T04:43:35.720Z,9.40
2023-04-24T04:46:04.406Z,9.40
2023-04-24T04:48:32.824Z,9.40
2023-04-24T04:51:02.366Z,9.40
2023-04-24T04:53:30.588Z,9.40
2023-04-24T04:55:58.924Z,9.30
2023-04-24T04:58:27.176Z,9.30
2023-04-24T05:00:55.357Z,9.30
2023-04-24T05:03:23.740Z,9.30
2023-04-24T05:05:52.045Z,9.40
2023-04-24T05:08:27.045Z,9.40
2023-04-24T05:10:56.405Z,9.40
2023-04-24T05:13:38.491Z,9.40
2023-04-24T05:16:08.360Z,9.40
2023-04-24T05:18:36.666Z,9.40
2023-04-24T05:21:05.082Z,9.40
2023-04-24T05:23:34.637Z,9.40
2023-04-24T05:26:04.588Z,9.40
2023-04-24T05:28:34.254Z,9.40
2023-04-24T05:31:03.395Z,9.50
2023-04-24T05:33:31.674Z,9.50
2023-04-24T05:35:59.922Z,9.50
2023-04-24T05:38:28.245Z,9.60
2023-04-24T05:40:57.927Z,9.60
2023-04-24T05:43:26.225Z,9.60
2023-04-24T05:45:54.607Z,9.60
2023-04-24T05:48:23.468Z,9.60
2023-04-24T05:50:51.977Z,9.60
2023-04-24T05:53:20.187Z,9.60
2023-04-24T05:55:48.438Z,9.60
2023-04-24T05:58:18.142Z,9.50
2023-04-24T06:00:47.770Z,9.50
2023-04-24T06:03:16.818Z,9.50
2023-04-24T06:05:45.301Z,9.50
2023-04-24T06:08:13.765Z,9.60
2023-04-24T06:10:42.355Z,9.60
2023-04-24T06:13:10.880Z,9.70
2023-04-24T06:15:40.570Z,9.70
2023-04-24T06:18:11.112Z,9.80
2023-04-24T06:20:39.396Z,9.80
2023-04-24T06:23:07.650Z,9.80
2023-04-24T06:25:35.933Z,9.80
2023-04-24T06:28:04.116Z,9.80
2023-04-24T06:30:32.526Z,9.80
2023-04-24T06:33:12.865Z,9.80
2023-04-24T06:35:48.044Z,9.80
2023-04-24T06:38:17.105Z,9.90
2023-04-24T06:40:45.907Z,9.90
2023-04-24T06:43:14.085Z,10.00
2023-04-24T06:45:42.290Z,10.00
2023-04-24T06:48:12.458Z,10.00
2023-04-24T06:50:40.677Z,10.00
2023-04-24T06:53:09.356Z,9.90
2023-04-24T06:55:38.470Z,9.90
2023-04-24T06:58:07.168Z,9.80
2023-04-24T07:00:35.591Z,9.90
2023-04-24T07:03:03.918Z,9.80
2023-04-24T07:05:35.181Z,9.90
2023-04-24T07:08:03.582Z,9.90
2023-04-24T07:10:31.767Z,10.00
2023-04-24T07:12:59.934Z,10.00
2023-04-24T07:15:28.279Z,10.00
2023-04-24T07:17:56.660Z,10.00
2023-04-24T07:20:25.039Z,10.00
2023-04-24T07:22:55.012Z,9.90
2023-04-24T07:25:23.273Z,10.00
2023-04-24T07:27:51.475Z,10.10
2023-04-24T07:30:19.632Z,10.30
2023-04-24T07:32:47.832Z,10.40
2023-04-24T07:35:16.069Z,10.40
2023-04-24T07:37:46.968Z,10.50
2023-04-24T07:40:16.744Z,10.50
2023-04-24T07:42:45.102Z,10.60
2023-04-24T07:45:13.289Z,10.60
2023-04-24T07:47:41.615Z,10.50
2023-04-24T07:50:10.193Z,10.50
2023-04-24T07:52:38.448Z,10.50
2023-04-24T07:55:08.120Z,10.50
2023-04-24T07:57:38.298Z,10.50
2023-04-24T08:00:07.834Z,10.50
2023-04-24T08:02:36.171Z,10.50
2023-04-24T08:05:05.119Z,10.60
2023-04-24T08:07:33.907Z,10.70
2023-04-24T08:10:02.216Z,10.80
2023-04-24T08:12:31.201Z,10.90
2023-04-24T08:15:00.778Z,11.00
2023-04-24T08:17:29.083Z,11.20
2023-04-24T08:20:02.402Z,11.30
2023-04-24T08:22:31.048Z,12.00
2023-04-24T08:24:59.602Z,13.50
2023-04-24T08:27:28.808Z,14.40
2023-04-24T08:29:57.414Z,14.60
2023-04-24T08:32:28.953Z,14.40
2023-04-24T08:34:57.477Z,14.40
2023-04-24T08:37:26.212Z,14.40
2023-04-24T08:39:54.766Z,14.30
2023-04-24T08:42:23.487Z,14.30
2023-04-24T08:44:52.342Z,13.90
2023-04-24T08:47:21.607Z,13.40
2023-04-24T08:49:52.458Z,12.90
2023-04-24T08:52:21.205Z,12.60
2023-04-24T08:54:50.101Z,12.30
2023-04-24T08:57:19.700Z,12.00
2023-04-24T08:59:48.937Z,11.90
2023-04-24T09:02:18.231Z,11.80
2023-04-24T09:04:48.200Z,11.80
2023-04-24T09:07:20.217Z,11.80
2023-04-24T09:09:48.549Z,11.80
2023-04-24T09:12:16.855Z,11.70
2023-04-24T09:14:46.416Z,11.80
2023-04-24T09:17:14.977Z,11.80
2023-04-24T09:19:43.651Z,11.80
2023-04-24T09:22:12.380Z,11.50
2023-04-24T09:24:42.246Z,11.00
2023-04-24T09:27:13.682Z,10.40
2023-04-24T09:29:42.139Z,10.10
2023-04-24T09:32:22.858Z,10.00
2023-04-24T09:34:52.350Z,10.00
2023-04-24T09:37:31.224Z,10.10
2023-04-24T09:40:14.950Z,10.30
2023-04-24T09:42:46.169Z,10.40
2023-04-24T09:45:15.834Z,10.50
2023-04-24T09:47:44.985Z,10.40
2023-04-24T09:50:17.632Z,10.40
2023-04-24T09:52:49.341Z,10.50
2023-04-24T09:55:22.288Z,10.40
2023-04-24T09:57:52.456Z,10.30
2023-04-24T10:00:23.990Z,10.20
2023-04-24T10:02:54.211Z,10.10
2023-04-24T10:05:26.014Z,10.00
2023-04-24T10:07:58.161Z,10.00
2023-04-24T10:10:28.780Z,10.10
2023-04-24T10:12:57.947Z,10.20
2023-04-24T10:15:28.126Z,10.40
2023-04-24T10:17:56.453Z,10.50
2023-04-24T10:20:26.556Z,10.60
2023-04-24T10:22:55.999Z,10.80
2023-04-24T10:25:26.308Z,11.00
2023-04-24T10:27:58.490Z,11.20
2023-04-24T10:30:27.353Z,11.40
2023-04-24T10:32:55.558Z,11.60
2023-04-24T10:35:27.754Z,11.80
2023-04-24T10:37:59.432Z,12.20
2023-04-24T10:40:28.717Z,12.40
2023-04-24T10:42:59.115Z,12.50
2023-04-24T10:45:27.912Z,12.60
2023-04-24T10:47:59.675Z,12.70
2023-04-24T10:50:30.292Z,12.60
2023-04-24T10:53:08.917Z,12.60
2023-04-24T10:55:48.604Z,12.50
2023-04-24T10:58:18.885Z,12.40
2023-04-24T11:00:58.714Z,12.40
2023-04-24T11:03:29.119Z,12.30
2023-04-24T11:06:03.019Z,12.30
2023-04-24T11:08:33.675Z,12.20
2023-04-24T11:11:04.727Z,12.10
2023-04-24T11:14:09.101Z,12.20
2023-04-24T11:16:41.128Z,12.20
2023-04-24T11:19:12.173Z,12.30
2023-04-24T11:21:45.016Z,12.40
2023-04-24T11:24:27.286Z,12.80
2023-04-24T11:26:57.725Z,13.70
2023-04-24T11:29:41.346Z,14.40
2023-04-24T11:32:28.504Z,15.10
2023-04-24T11:34:58.632Z,15.50
2023-04-24T11:37:29.952Z,15.50
2023-04-24T11:40:01.537Z,15.40
2023-04-24T11:42:30.939Z,15.20
2023-04-24T11:45:01.413Z,15.10
2023-04-24T11:47:34.758Z,14.50
2023-04-24T11:50:04.533Z,14.40
2023-04-24T11:52:33.660Z,14.30
2023-04-24T11:55:02.432Z,14.20
2023-04-24T11:57:34.773Z,14.10
2023-04-24T12:00:06.422Z,14.30
2023-04-24T12:02:37.513Z,14.50
2023-04-24T12:05:08.137Z,14.60
2023-04-24T12:07:44.236Z,14.60
2023-04-24T12:10:12.933Z,14.50
2023-04-24T12:12:41.179Z,14.40
2023-04-24T12:15:13.464Z,14.30
2023-04-24T12:17:44.469Z,14.30
2023-04-24T12:20:13.668Z,14.50
2023-04-24T12:22:48.946Z,14.70
2023-04-24T12:25:18.123Z,14.90
2023-04-24T12:27:46.743Z,15.30
2023-04-24T12:30:17.651Z,15.90
2023-04-24T12:32:47.510Z,16.70
2023-04-24T12:35:16.460Z,17.40
2023-04-24T12:37:47.399Z,18.00
2023-04-24T12:40:16.945Z,18.20
2023-04-24T12:42:47.227Z,18.10
2023-04-24T12:45:18.110Z,17.70
2023-04-24T12:47:47.795Z,17.40
2023-04-24T12:50:17.473Z,16.90
2023-04-24T12:52:47.408Z,16.50
2023-04-24T12:55:15.668Z,16.00
2023-04-24T12:57:43.901Z,15.70
2023-04-24T13:00:12.722Z,15.60
2023-04-24T13:02:42.518Z,15.40
2023-04-24T13:05:12.636Z,15.40
2023-04-24T13:07:40.941Z,15.20
2023-04-24T13:10:10.379Z,14.90
2023-04-24T13:12:40.084Z,14.70
2023-04-24T13:15:09.633Z,14.60
2023-04-24T13:17:37.801Z,14.50
2023-04-24T13:20:08.571Z,14.30
2023-04-24T13:22:37.823Z,14.30
2023-04-24T13:25:08.318Z,14.30
2023-04-24T13:27:36.579Z,14.70
2023-04-24T13:30:05.479Z,15.60
2023-04-24T13:32:36.416Z,16.50
2023-04-24T13:35:05.088Z,16.80
2023-04-24T13:37:34.729Z,16.90
2023-04-24T13:40:02.920Z,16.60
2023-04-24T13:42:31.082Z,16.20
2023-04-24T13:44:59.374Z,15.30
2023-04-24T13:47:28.217Z,14.70
2023-04-24T13:49:56.459Z,14.30
2023-04-24T13:52:24.630Z,14.20
2023-04-24T13:54:54.215Z,14.00
2023-04-24T13:57:22.936Z,13.80
2023-04-24T13:59:51.269Z,13.70
2023-04-24T14:02:19.604Z,13.60
2023-04-24T14:04:49.324Z,13.40
2023-04-24T14:07:17.563Z,13.20
2023-04-24T14:09:45.720Z,13.00
2023-04-24T14:12:17.664Z,13.00
2023-04-24T14:14:45.895Z,12.90
2023-04-24T14:17:14.077Z,12.70
2023-04-24T14:19:42.288Z,12.60
2023-04-24T14:22:10.437Z,12.60
2023-04-24T14:24:38.646Z,12.60
2023-04-24T14:27:06.831Z,12.60
2023-04-24T14:29:36.427Z,12.70
2023-04-24T14:32:04.652Z,12.70
2023-04-24T14:34:32.832Z,12.50
2023-04-24T14:37:01.112Z,12.50
2023-04-24T14:39:29.369Z,12.50
2023-04-24T14:41:57.764Z,12.80
2023-04-24T14:44:25.946Z,13.10
2023-04-24T14:46:55.697Z,13.30
2023-04-24T14:49:24.059Z,13.60
2023-04-24T14:51:52.279Z,13.70
2023-04-24T14:54:20.838Z,13.90
2023-04-24T14:56:49.053Z,13.90
2023-04-24T14:59:17.398Z,13.80
2023-04-24T15:01:45.611Z,13.90
2023-04-24T15:04:15.345Z,13.90
2023-04-24T15:06:43.573Z,14.00
2023-04-24T15:09:11.721Z,14.10
2023-04-24T15:11:39.914Z,14.30
2023-04-24T15:14:08.397Z,14.30
2023-04-24T15:16:37.504Z,14.20
2023-04-24T15:19:05.679Z,14.20
2023-04-24T15:21:35.314Z,14.10
2023-04-24T15:24:03.516Z,14.10
2023-04-24T15:26:31.876Z,14.10
2023-04-24T15:29:00.161Z,13.90
2023-04-24T15:31:28.439Z,13.90
2023-04-24T15:33:56.689Z,13.90
2023-04-24T15:36:24.859Z,13.80
2023-04-24T15:38:54.472Z,13.80
2023-04-24T15:41:22.625Z,13.70
2023-04-24T15:43:50.871Z,13.60
2023-04-24T15:46:19.150Z,13.50
2023-04-24T15:48:47.344Z,13.40
2023-04-24T15:51:15.550Z,13.40
2023-04-24T15:53:43.793Z,13.30
2023-04-24T15:56:13.578Z,13.30
2023-04-24T15:58:41.811Z,13.20
2023-04-24T16:01:10.143Z,13.00
2023-04-24T16:03:38.596Z,12.90
2023-04-24T16:06:07.441Z,12.80
2023-04-24T16:08:36.227Z,12.80
2023-04-24T16:11:04.443Z,12.70
2023-04-24T16:13:34.445Z,12.50
2023-04-24T16:16:02.911Z,12.30
2023-04-24T16:18:31.171Z,12.20
2023-04-24T16:20:59.383Z,12.10
2023-04-24T16:23:27.803Z,11.80
2023-04-24T16:25:56.138Z,11.40
2023-04-24T16:28:24.385Z,11.00
2023-04-24T16:30:53.953Z,10.80
2023-04-24T16:33:22.133Z,10.60
2023-04-24T16:35:50.293Z,10.70
2023-04-24T16:38:18.549Z,10.60
2023-04-24T16:40:46.699Z,10.70
2023-04-24T16:43:14.843Z,10.90
2023-04-24T16:45:43.044Z,11.10
2023-04-24T16:48:12.590Z,11.10
2023-04-24T16:50:40.848Z,11.10
2023-04-24T16:53:09.006Z,11.10
2023-04-24T16:55:37.172Z,11.20
2023-04-24T16:58:05.375Z,11.20
2023-04-24T17:00:33.596Z,11.20
2023-04-24T17:03:01.934Z,11.20
2023-04-24T17:05:31.654Z,11.20
2023-04-24T17:08:00.024Z,11.10
2023-04-24T17:10:29.038Z,11.10
2023-04-24T17:12:57.404Z,11.10
2023-04-24T17:15:26.047Z,11.10
2023-04-24T17:17:54.501Z,11.10
2023-04-24T17:20:24.095Z,11.10
2023-04-24T17:22:54.148Z,11.10
2023-04-24T17:25:22.306Z,11.00
2023-04-24T17:27:50.971Z,11.10
2023-04-24T17:30:19.303Z,11.10
2023-04-24T17:32:47.627Z,11.10
2023-04-24T17:35:15.849Z,11.10
2023-04-24T17:37:44.545Z,11.00
2023-04-24T17:40:14.787Z,10.90
2023-04-24T17:42:43.165Z,10.80
2023-04-24T17:45:12.514Z,10.70
2023-04-24T17:47:41.108Z,10.60
2023-04-24T17:50:10.021Z,10.50
2023-04-24T17:52:38.205Z,10.40
2023-04-24T17:55:07.353Z,10.40
2023-04-24T17:57:37.012Z,10.30
2023-04-24T18:00:06.258Z,10.30
2023-04-24T18:02:34.717Z,10.20
2023-04-24T18:05:03.016Z,10.30
2023-04-24T18:07:31.167Z,10.30
2023-04-24T18:09:59.342Z,10.10
2023-04-24T18:12:27.547Z,10.10
2023-04-24T18:15:13.132Z,10.10
2023-04-24T18:17:42.500Z,10.00
2023-04-24T18:20:11.930Z,9.90
2023-04-24T18:22:40.504Z,9.90
2023-04-24T18:25:09.760Z,10.00
2023-04-24T18:27:38.415Z,10.10
2023-04-24T18:30:10.885Z,9.90
2023-04-24T18:32:40.995Z,10.10
2023-04-24T18:35:09.975Z,10.00
2023-04-24T18:37:38.178Z,10.00
2023-04-24T18:40:07.274Z,9.90
2023-04-24T18:42:35.416Z,9.90
2023-04-24T18:45:04.903Z,9.80
2023-04-24T18:47:34.505Z,9.80
2023-04-24T18:50:02.693Z,9.80
2023-04-24T18:52:39.736Z,9.70
2023-04-24T18:55:09.873Z,9.60
2023-04-24T18:57:38.138Z,9.70
2023-04-24T19:00:07.610Z,9.70
2023-04-24T19:02:37.280Z,9.60
2023-04-24T19:05:10.048Z,9.60
2023-04-24T19:07:38.243Z,9.60
2023-04-24T19:10:10.340Z,9.50
2023-04-24T19:12:38.585Z,9.40
2023-04-24T19:15:14.622Z,9.40
2023-04-24T19:17:44.197Z,9.30
2023-04-24T19:20:13.868Z,9.30
2023-04-24T19:22:44.700Z,9.30
2023-04-24T19:25:18.176Z,9.20
2023-04-24T19:27:46.419Z,9.10
2023-04-24T19:30:19.427Z,9.10
2023-04-24T19:32:48.994Z,9.00
2023-04-24T19:35:21.623Z,8.90
2023-04-24T19:37:53.561Z,8.80
2023-04-24T19:40:23.755Z,8.80
2023-04-24T19:42:54.587Z,8.80
2023-04-24T19:45:22.769Z,8.90
2023-04-24T19:47:54.426Z,8.80
2023-04-24T19:50:23.935Z,8.80
2023-04-24T19:52:57.172Z,8.80
2023-04-24T19:55:30.271Z,8.80
2023-04-24T19:57:58.452Z,8.80
2023-04-24T20:00:26.618Z,8.90
2023-04-24T20:02:57.032Z,8.90
2023-04-24T20:05:25.503Z,8.90
2023-04-24T20:07:53.901Z,8.90
2023-04-24T20:10:22.073Z,8.90
2023-04-24T20:12:50.368Z,8.90
2023-04-24T20:15:19.144Z,8.90
2023-04-24T20:17:47.560Z,8.80
2023-04-24T20:20:17.105Z,8.80
2023-04-24T20:22:45.313Z,8.70
2023-04-24T20:25:13.953Z,8.80
2023-04-24T20:27:42.598Z,8.80
2023-04-24T20:30:13.316Z,8.70
2023-04-24T20:32:44.547Z,8.80
2023-04-24T20:35:13.079Z,8.80
2023-04-24T20:37:42.649Z,8.80
2023-04-24T20:40:13.716Z,8.80
2023-04-24T20:42:41.927Z,8.80
2023-04-24T20:45:11.526Z,8.80
2023-04-24T20:47:39.837Z,8.80
2023-04-24T20:50:09.172Z,8.80
2023-04-24T20:52:37.337Z,8.80
2023-04-24T20:55:08.307Z,8.80
2023-04-24T20:57:37.258Z,8.80
2023-04-24T21:00:08.494Z,8.80
2023-04-24T21:02:36.763Z,8.80
2023-04-24T21:05:05.394Z,8.80
2023-04-24T21:07:34.012Z,8.70
2023-04-24T21:10:02.192Z,8.60
2023-04-24T21:12:31.759Z,8.60
2023-04-24T21:14:59.918Z,8.70
2023-04-24T21:17:28.495Z,8.70
2023-04-24T21:19:57.456Z,8.70
2023-04-24T21:22:25.715Z,8.70
2023-04-24T21:24:53.877Z,8.60
2023-04-24T21:27:22.105Z,8.60
2023-04-24T21:29:51.635Z,8.60
2023-04-24T21:32:20.098Z,8.60
2023-04-24T21:34:48.600Z,8.60
2023-04-24T21:37:16.798Z,8.60
2023-04-24T21:39:45.014Z,8.60
2023-04-24T21:42:13.354Z,8.60
2023-04-24T21:44:41.815Z,8.50
2023-04-24T21:47:11.664Z,8.60
2023-04-24T21:49:40.037Z,8.60
2023-04-24T21:52:08.286Z,8.70
2023-04-24T21:54:36.556Z,8.70
2023-04-24T21:57:04.904Z,8.70
2023-04-24T21:59:33.248Z,8.70
2023-04-24T22:02:01.463Z,8.70
2023-04-24T22:04:31.328Z,8.80
2023-04-24T22:06:59.755Z,8.80
2023-04-24T22:09:28.069Z,8.80
2023-04-24T22:11:56.296Z,8.80
2023-04-24T22:14:24.507Z,8.80
2023-04-24T22:16:52.730Z,8.70
2023-04-24T22:19:20.977Z,8.60
2023-04-24T22:21:51.520Z,8.60
2023-04-24T22:24:20.099Z,8.60
2023-04-24T22:26:48.365Z,8.60
2023-04-24T22:29:16.593Z,8.50
2023-04-24T22:31:44.919Z,8.50
2023-04-24T22:34:13.160Z,8.60
2023-04-24T22:36:41.432Z,8.60
2023-04-24T22:39:15.778Z,8.60
2023-04-24T22:41:44.395Z,8.60
2023-04-24T22:44:12.765Z,8.70
2023-04-24T22:46:41.631Z,8.70
2023-04-24T22:49:10.367Z,8.60
2023-04-24T22:51:40.628Z,8.50
2023-04-24T22:54:10.236Z,8.50
2023-04-24T22:56:38.902Z,8.60
2023-04-24T22:59:07.553Z,8.50
2023-04-24T23:01:35.762Z,8.40
2023-04-24T23:04:04.196Z,8.40
2023-04-24T23:06:32.508Z,8.40
2023-04-24T23:09:00.680Z,8.30
2023-04-24T23:11:30.334Z,8.30
2023-04-24T23:13:58.575Z,8.30
2023-04-24T23:16:26.803Z,8.30
2023-04-24T23:18:55.032Z,8.30
2023-04-24T23:21:23.880Z,8.40
2023-04-24T23:23:52.918Z,8.40
2023-04-24T23:26:21.271Z,8.30
2023-04-24T23:28:51.218Z,8.20
2023-04-24T23:31:19.543Z,8.20
2023-04-24T23:33:48.016Z,8.20
2023-04-24T23:36:17.015Z,8.20
2023-04-24T23:38:50.352Z,8.30
2023-04-24T23:41:19.493Z,8.30
2023-04-24T23:43:47.866Z,8.30
2023-04-24T23:46:17.600Z,8.40
2023-04-24T23:48:45.898Z,8.40
2023-04-24T23:51:14.186Z,8.40
2023-04-24T23:53:42.534Z,8.40
2023-04-24T23:56:10.960Z,8.40
2023-04-24T23:58:39.198Z,8.40
